PDT,Max TemperatureF,Mean TemperatureF,Min TemperatureF,Max Dew PointF,MeanDew PointF,Min DewpointF,Max Humidity, Mean Humidity, Min Humidity, Max Sea Level PressureIn, Mean Sea Level PressureIn, Min Sea Level PressureIn, Max VisibilityMiles, Mean VisibilityMiles, Min VisibilityMiles, Max Wind SpeedMPH, Mean Wind SpeedMPH, Max Gust SpeedMPH,PrecipitationIn, CloudCover, Events, WindDirDegrees
2012-10-1,82,65,48,57,47,41,78,55,32,30.26,30.17,30.09,10,10,10,15,5,24,0.00,0,,322
2012-10-2,69,57,45,51,46,42,86,66,45,30.19,30.16,30.11,10,10,10,12,5,20,0.00,2,,333
2012-10-3,70,58,45,41,28,20,77,48,19,30.28,30.22,30.17,10,10,9,23,10,35,0.00,0,,78
2012-10-4,72,58,43,37,28,19,66,41,15,30.20,30.17,30.15,10,10,10,20,9,28,0.00,0,,31
2012-10-5,72,54,36,39,25,19,85,50,14,30.22,30.18,30.13,10,10,10,25,8,35,0.00,0,,88
2012-10-6,75,56,36,37,23,14,76,43,10,30.19,30.12,30.06,10,10,10,21,7,30,0.00,0,,79
2012-10-7,78,58,38,37,32,28,79,49,18,30.06,29.99,29.90,10,10,10,8,2,10,0.00,0,,260
2012-10-8,71,54,36,45,38,33,86,57,28,30.05,29.98,29.93,10,10,10,6,0,22,0.00,0,,120
2012-10-9,69,55,41,47,44,39,96,71,45,30.13,30.06,29.99,10,9,5,7,1,12,0.00,3,,287
2012-10-10,66,54,41,50,44,39,100,78,56,30.05,30.01,29.93,10,5,0,9,2,13,0.00,4,Fog,333
2012-10-11,64,52,39,48,43,37,96,74,52,29.98,29.93,29.80,10,6,1,7,1,14,0.00,3,,290
2012-10-12,55,52,49,52,50,46,96,90,83,30.08,29.99,29.87,10,6,2,9,4,13,1.06,8,Rain,138
2012-10-13,64,60,55,56,54,52,93,83,73,30.22,30.17,30.10,10,10,10,12,4,16,T,8,Rain,167
2012-10-14,59,,59,56,56,56,90,90,90,30.16,30.06,29.95,10,10,10,5,5,,0.00,3,,110
2012-10-15,64,63,62,61,60,57,90,84,78,29.98,29.83,29.68,10,8,2,7,5,,0.29,8,Rain,159
2012-10-16,64,53,42,59,46,40,92,69,46,30.31,30.07,29.70,10,10,8,17,6,25,0.07,5,Rain,288
2012-10-17,61,51,40,46,43,39,96,76,55,30.33,30.28,30.19,10,9,2,12,2,15,0.00,3,,292
2012-10-18,68,55,42,52,44,40,100,71,42,30.21,30.07,29.90,10,5,0,10,2,16,0.03,4,Fog-Rain,108
2012-10-19,58,55,51,54,51,46,100,84,67,29.94,29.87,29.80,10,9,2,13,4,18,0.28,8,Rain,158
2012-10-20,82,60,44,48,43,40,93,61,29,29.99,29.94,29.90,10,9,4,18,3,26,0.30,7,Rain,121
2012-10-21,80,62,47,43,42,39,82,54,26,29.94,29.88,29.75,10,10,7,10,3,15,0.06,6,Rain,137
2012-10-22,71,58,45,45,42,39,83,60,37,29.73,29.62,29.58,10,9,5,13,4,20,0.21,7,Rain,143
2012-10-23,66,55,46,43,40,37,86,63,40,29.88,29.84,29.73,10,10,6,13,5,21,0.17,7,Rain,167
2012-10-24,53,49,45,43,42,39,86,75,63,30.19,29.98,29.87,10,10,6,12,5,17,0.03,8,Rain,138
2012-10-25,54,48,42,43,41,39,92,78,64,30.43,30.36,30.21,10,10,7,8,2,10,0.01,4,Rain,145
2012-10-26,58,52,45,50,45,40,93,82,71,30.31,30.18,30.13,10,8,2,14,4,18,0.05,7,Rain,118
2012-10-27,61,56,50,57,51,46,93,85,77,30.14,30.00,29.88,10,8,2,13,5,21,0.46,8,Rain,138
2012-10-28,63,59,55,58,55,53,93,89,84,29.97,29.92,29.84,10,8,2,12,2,21,0.55,7,Rain,164
2012-10-29,67,62,57,57,55,53,93,78,63,30.05,29.98,29.86,10,9,2,12,5,20,0.44,6,Rain,175
2012-10-30,61,59,57,58,56,55,93,89,84,29.98,29.89,29.78,10,9,3,12,6,15,0.32,8,Rain,118
2012-10-31,59,57,55,55,53,50,93,85,77,29.77,29.72,29.68,10,9,5,13,6,21,0.10,8,Rain,119